Time;durP1;ratioP1;P1;durP2;ratioP2;P2;SDS_P1;SDS_P2;PMS_P1;PMS_P2;Temp;Humidity;BMP_temperature;BMP_pressure;BME280_temperature;BME280_humidity;BME280_pressure;Samples;Min_cycle;Max_cycle;Signal;HPM_P1;HPM_P2
2021/04/15 00:00:50;;;;;;;;;;;;;;;2.78;73.77;101609.13;5072519;28;20036;-83
2021/04/15 00:03:27;;;;;;;5.60;3.90;;;;;;;2.76;74.43;101603.88;5064238;28;19935;-83
2021/04/15 00:06:03;;;;;;;4.47;3.60;;;;;;;2.76;73.99;101610.84;5067737;28;20045;-83
2021/04/15 00:08:30;;;;;;;5.55;3.60;;;;;;;2.72;73.78;101603.84;5070201;28;20163;-83
2021/04/15 00:10:58;;;;;;;4.28;3.40;;;;;;;2.62;74.20;101594.22;5073442;28;20097;-83
2021/04/15 00:13:33;;;;;;;6.45;3.88;;;;;;;2.57;74.13;101594.19;5072275;28;20040;-83
2021/04/15 00:16:02;;;;;;;7.63;3.38;;;;;;;2.60;74.67;101609.03;5072507;28;20064;-83
2021/04/15 00:18:30;;;;;;;4.32;3.58;;;;;;;2.63;74.73;101609.03;5086602;28;20044;-83
2021/04/15 00:20:56;;;;;;;4.82;3.80;;;;;;;2.61;74.24;101600.31;5087228;28;20097;-83
2021/04/15 00:23:23;;;;;;;6.68;3.88;;;;;;;2.64;74.65;101605.56;5084779;28;20080;-83
2021/04/15 00:25:51;;;;;;;5.82;3.58;;;;;;;2.66;74.68;101601.22;5085188;28;20049;-83
2021/04/15 00:28:18;;;;;;;5.68;3.60;;;;;;;2.68;74.25;101597.72;5078549;28;20048;-82
2021/04/15 00:30:44;;;;;;;6.35;3.38;;;;;;;2.58;73.91;101589.84;5088970;28;20047;-83
2021/04/15 00:33:11;;;;;;;4.35;3.60;;;;;;;2.54;74.53;101585.44;5088006;28;20063;-82
2021/04/15 00:35:39;;;;;;;6.38;3.97;;;;;;;2.55;74.37;101595.03;5075186;28;20420;-84
2021/04/15 00:38:07;;;;;;;5.80;3.65;;;;;;;2.56;74.72;101589.81;5072055;28;20044;-81
2021/04/15 00:40:35;;;;;;;6.03;3.80;;;;;;;2.51;74.71;101588.94;5070163;28;20044;-82
2021/04/15 00:43:03;;;;;;;4.93;4.00;;;;;;;2.45;74.48;101592.41;5071962;28;20110;-82
2021/04/15 00:45:33;;;;;;;5.30;4.22;;;;;;;2.43;75.07;101585.41;5072496;28;20075;-81
2021/04/15 00:48:08;;;;;;;5.45;3.92;;;;;;;2.46;74.61;101586.31;5072967;28;20525;-84
2021/04/15 00:50:35;;;;;;;5.82;4.20;;;;;;;2.48;75.02;101583.69;5069418;28;20044;-83
2021/04/15 00:53:07;;;;;;;4.90;3.85;;;;;;;2.46;75.04;101586.31;5068756;28;20479;-83
2021/04/15 00:55:35;;;;;;;5.90;3.75;;;;;;;2.41;74.67;101588.00;5071598;28;20064;-82
2021/04/15 00:58:03;;;;;;;5.85;4.10;;;;;;;2.38;74.86;101582.75;5074398;28;20746;-83
2021/04/15 01:00:31;;;;;;;6.95;3.97;;;;;;;2.37;75.74;101582.75;5068426;28;20064;-83
2021/04/15 01:03:00;;;;;;;5.80;4.07;;;;;;;2.30;75.19;101584.47;5067907;28;20054;-83
2021/04/15 01:05:35;;;;;;;6.50;4.28;;;;;;;2.26;75.46;101572.25;5068204;28;20053;-81
2021/04/15 01:08:03;;;;;;;5.57;4.00;;;;;;;2.31;75.72;101574.91;5065011;28;20048;-82
2021/04/15 01:10:53;;;;;;;6.40;3.92;;;;;;;2.29;75.33;101580.09;5070307;28;20079;-82
2021/04/15 01:13:47;;;;;;;6.30;4.40;;;;;;;2.29;75.34;101585.34;5065927;28;20048;-82
2021/04/15 01:16:33;;;;;;;5.32;4.00;;;;;;;2.32;75.48;101580.13;5068650;28;20116;-82
2021/04/15 01:19:17;;;;;;;6.00;4.63;;;;;;;2.36;75.75;101574.03;5071105;28;20082;-82
2021/04/15 01:22:16;;;;;;;4.28;3.70;;;;;;;2.34;75.42;101578.41;5070091;28;20040;-83
2021/04/15 01:25:13;;;;;;;5.47;4.10;;;;;;;2.33;74.98;101584.50;5083790;28;20116;-81
2021/04/15 01:27:49;;;;;;;9.27;4.18;;;;;;;2.30;74.94;101576.63;5085015;28;20474;-82
2021/04/15 01:30:32;;;;;;;5.80;4.20;;;;;;;2.28;74.95;101575.75;5080356;28;20032;-83
2021/04/15 01:33:04;;;;;;;6.78;4.20;;;;;;;2.30;75.06;101579.25;5089225;28;20102;-83
2021/04/15 01:35:36;;;;;;;6.43;4.15;;;;;;;2.24;74.95;101567.88;5086007;28;20060;-82
2021/04/15 01:38:05;;;;;;;6.13;4.28;;;;;;;2.26;75.41;101571.38;5093687;28;20051;-84
2021/04/15 01:40:37;;;;;;;6.30;4.20;;;;;;;2.23;75.42;101573.97;5080753;28;20048;-83
2021/04/15 01:43:16;;;;;;;7.03;4.18;;;;;;;2.23;75.23;101574.84;5083532;28;20121;-82
2021/04/15 01:45:49;;;;;;;7.45;4.00;;;;;;;2.21;75.41;101573.94;5075819;28;20069;-83
2021/04/15 01:48:32;;;;;;;6.90;4.22;;;;;;;2.21;75.96;101576.56;5087835;28;20044;-83
2021/04/15 01:51:11;;;;;;;6.05;4.40;;;;;;;2.19;75.39;101574.84;5092363;28;20036;-82
2021/04/15 01:53:42;;;;;;;;;;;;;;;2.15;75.74;101576.53;5089747;28;20059;-82
2021/04/15 01:56:35;;;;;;;5.82;4.20;;;;;;;2.14;75.40;101573.91;5076866;28;20648;-83
2021/04/15 01:59:17;;;;;;;8.85;4.30;;;;;;;2.09;75.55;101568.66;5074277;28;20051;-82
2021/04/15 02:01:59;;;;;;;5.25;4.13;;;;;;;2.10;76.29;101586.09;5081382;28;20078;-83
2021/04/15 02:04:30;;;;;;;4.93;4.43;;;;;;;2.09;75.75;101581.72;5086152;28;20044;-82
2021/04/15 02:07:10;;;;;;;5.78;4.10;;;;;;;2.10;75.47;101575.63;5069453;28;20123;-83
2021/04/15 02:09:39;;;;;;;5.93;4.32;;;;;;;2.11;75.84;101580.00;5067508;28;20041;-83
2021/04/15 02:12:27;;;;;;;5.45;4.28;;;;;;;2.11;75.96;101577.38;5083476;28;20129;-83
2021/04/15 02:15:06;;;;;;;6.63;4.45;;;;;;;2.06;76.10;101573.84;5081117;28;20079;-83
2021/04/15 02:17:36;;;;;;;6.00;4.18;;;;;;;2.11;76.24;101587.84;5064952;28;20052;-83
2021/04/15 02:20:12;;;;;;;5.85;4.28;;;;;;;2.07;76.04;101580.81;5069382;28;20052;-82
2021/04/15 02:22:50;;;;;;;5.88;4.10;;;;;;;1.99;75.97;101575.56;5063755;28;20796;-82
2021/04/15 02:25:37;;;;;;;5.70;4.75;;;;;;;2.06;75.88;101579.94;5067599;28;20545;-83
2021/04/15 02:28:17;;;;;;;7.28;4.40;;;;;;;2.01;76.24;101586.91;5066551;28;20079;-82
2021/04/15 02:30:48;;;;;;;7.07;4.35;;;;;;;1.99;76.24;101579.91;5066064;28;20048;-82
2021/04/15 02:33:31;;;;;;;5.43;4.65;;;;;;;2.00;76.22;101585.16;5068732;28;20075;-83
2021/04/15 02:36:03;;;;;;;6.50;4.60;;;;;;;1.96;76.27;101579.88;5066537;28;20126;-83
2021/04/15 02:38:41;;;;;;;6.38;4.70;;;;;;;1.97;76.90;101584.25;5067605;28;20048;-83
2021/04/15 02:41:10;;;;;;;8.43;4.70;;;;;;;1.96;76.28;101586.00;5066773;28;20108;-83
2021/04/15 02:43:43;;;;;;;7.38;4.95;;;;;;;1.99;76.22;101585.16;5062711;28;20041;-83
2021/04/15 02:46:20;;;;;;;5.88;4.93;;;;;;;1.99;76.44;101577.31;5069515;28;20040;-83
2021/04/15 02:48:50;;;;;;;7.43;5.25;;;;;;;2.04;76.78;101581.72;5066511;28;20068;-82
2021/04/15 02:51:33;;;;;;;8.15;5.30;;;;;;;2.02;76.08;101587.78;5065800;28;20101;-82
2021/04/15 02:54:09;;;;;;;7.18;5.07;;;;;;;2.01;76.43;101578.19;5069937;28;20052;-83
2021/04/15 02:56:48;;;;;;;5.57;5.00;;;;;;;1.96;76.43;101577.28;5071557;28;20049;-82
2021/04/15 02:59:26;;;;;;;6.13;5.05;;;;;;;1.94;76.88;101584.22;5061051;28;20076;-82
2021/04/15 03:02:00;;;;;;;7.13;5.07;;;;;;;1.92;76.86;101584.22;5071919;28;20052;-82
2021/04/15 03:04:27;;;;;;;8.70;5.18;;;;;;;1.81;76.86;101583.28;5091899;28;20045;-82
2021/04/15 03:06:59;;;;;;;7.50;5.18;;;;;;;1.86;77.10;101588.53;5071457;28;20059;-82
2021/04/15 03:09:27;;;;;;;8.63;5.20;;;;;;;1.83;76.96;101591.13;5074447;28;20168;-83
2021/04/15 03:12:06;;;;;;;7.63;5.30;;;;;;;1.83;77.06;101591.13;5070899;28;20143;-83
2021/04/15 03:14:40;;;;;;;7.18;5.20;;;;;;;1.82;77.36;101581.53;5067951;28;20044;-83
2021/04/15 03:17:09;;;;;;;6.47;5.15;;;;;;;1.77;77.13;101582.38;5072283;28;20044;-83
2021/04/15 03:19:38;;;;;;;6.80;5.40;;;;;;;1.76;77.50;101593.66;5074757;28;20059;-82
2021/04/15 03:22:15;;;;;;;7.88;5.53;;;;;;;1.69;77.44;101578.84;5091731;28;20036;-83
2021/04/15 03:24:46;;;;;;;7.32;5.68;;;;;;;1.77;77.88;101592.81;5071560;28;20048;-82
2021/04/15 03:27:22;;;;;;;9.98;6.00;;;;;;;1.73;77.39;101588.41;5068199;28;20116;-83
2021/04/15 03:30:19;;;;;;;7.50;5.53;;;;;;;1.73;77.69;101595.41;5067992;28;20056;-83
2021/04/15 03:32:54;;;;;;;7.90;5.70;;;;;;;1.71;78.42;101595.38;5072247;28;20056;-83
2021/04/15 03:35:35;;;;;;;10.70;5.85;;;;;;;1.70;77.99;101597.97;5079267;28;20063;-83
2021/04/15 03:38:14;;;;;;;8.27;5.45;;;;;;;1.71;78.27;101600.63;5087593;28;20089;-82
2021/04/15 03:40:47;;;;;;;8.75;5.70;;;;;;;1.73;78.39;101603.25;5086269;28;20043;-83
2021/04/15 03:43:25;;;;;;;7.05;5.10;;;;;;;1.76;78.31;101609.34;5089462;28;20045;-83
2021/04/15 03:46:17;;;;;;;7.35;6.03;;;;;;;1.75;78.50;101601.50;5089815;28;20392;-83
2021/04/15 03:48:48;;;;;;;9.13;6.32;;;;;;;1.72;78.24;101604.97;5072041;28;20918;-83
2021/04/15 03:51:20;;;;;;;;;;;;;;;1.72;77.72;101602.38;5074167;28;20080;-83
2021/04/15 03:54:00;;;;;;;11.10;6.10;;;;;;;1.68;78.02;101605.81;5089887;28;19975;-83
2021/04/15 03:56:38;;;;;;;8.32;5.95;;;;;;;1.67;78.62;101600.56;5087406;28;20066;-82
2021/04/15 03:59:35;;;;;;;8.75;6.28;;;;;;;1.68;78.25;101605.81;5090281;28;20048;-83
2021/04/15 04:02:08;;;;;;;10.32;6.47;;;;;;;1.66;78.53;101601.41;5085190;28;20954;-84
2021/04/15 04:04:43;;;;;;;11.48;6.40;;;;;;;1.67;78.28;101603.19;5073066;28;20064;-83
2021/04/15 04:07:16;;;;;;;8.45;6.28;;;;;;;1.62;78.72;101595.28;5079275;28;20462;-83
2021/04/15 04:09:49;;;;;;;9.07;6.32;;;;;;;1.62;78.77;101597.91;5064587;28;20051;-83
2021/04/15 04:12:24;;;;;;;8.80;6.03;;;;;;;1.59;78.42;101594.38;5068326;28;20054;-83
2021/04/15 04:15:12;;;;;;;8.35;6.00;;;;;;;1.58;78.87;101603.94;5072796;28;20063;-82
2021/04/15 04:18:04;;;;;;;8.65;6.82;;;;;;;1.62;79.04;101604.88;5068968;28;20472;-82
2021/04/15 04:20:34;;;;;;;8.45;6.80;;;;;;;1.61;78.49;101600.50;5066675;28;20448;-82
2021/04/15 04:23:33;;;;;;;11.80;6.95;;;;;;;1.61;78.40;101606.59;5068071;28;20136;-82
2021/04/15 04:26:19;;;;;;;9.45;7.47;;;;;;;1.54;78.74;101610.03;5042698;28;20048;-82
2021/04/15 04:29:17;;;;;;;11.43;6.47;;;;;;;1.58;78.10;101608.28;5063223;28;20771;-82
2021/04/15 04:31:46;;;;;;;10.05;7.05;;;;;;;1.60;78.43;101611.81;5068302;28;20064;-82
2021/04/15 04:34:15;;;;;;;9.80;7.13;;;;;;;1.60;78.66;101615.28;5069864;28;20052;-83
2021/04/15 04:36:45;;;;;;;9.60;7.18;;;;;;;1.62;78.90;101616.19;5072864;28;20048;-83
2021/04/15 04:39:14;;;;;;;11.18;7.93;;;;;;;1.63;78.53;101622.28;5070392;28;20072;-82
2021/04/15 04:41:55;;;;;;;9.20;7.68;;;;;;;1.60;78.65;101619.63;5071376;28;20147;-82
2021/04/15 04:44:42;;;;;;;12.35;8.18;;;;;;;1.59;78.97;101625.72;5076243;28;20051;-82
2021/04/15 04:47:38;;;;;;;9.82;8.20;;;;;;;1.61;79.22;101618.78;5069810;28;20071;-83
2021/04/15 04:50:31;;;;;;;11.75;8.52;;;;;;;1.64;79.08;101626.63;5046822;28;20048;-82
2021/04/15 04:53:00;;;;;;;13.15;8.95;;;;;;;1.62;78.92;101621.41;5073379;28;20413;-83
2021/04/15 04:55:38;;;;;;;12.95;8.88;;;;;;;1.64;78.67;101627.50;5083302;28;20041;-83
2021/04/15 04:58:17;;;;;;;15.10;9.23;;;;;;;1.67;79.05;101632.78;5088658;28;20104;-81
2021/04/15 05:00:50;;;;;;;11.05;8.80;;;;;;;1.70;78.98;101630.19;5076193;28;20116;-84
2021/04/15 05:03:21;;;;;;;14.45;9.48;;;;;;;1.76;79.26;101638.06;5073862;28;20051;-84
2021/04/15 05:05:48;;;;;;;14.48;9.23;;;;;;;1.74;78.93;101624.13;5070543;28;20124;-83
2021/04/15 05:08:26;;;;;;;13.20;9.73;;;;;;;1.84;78.76;101637.25;5069103;28;20086;-84
2021/04/15 05:10:54;;;;;;;13.13;9.65;;;;;;;1.86;78.84;101639.03;5077516;28;20048;-83
2021/04/15 05:13:24;;;;;;;15.65;9.70;;;;;;;1.91;78.87;101641.66;5074196;28;20084;-83
2021/04/15 05:15:55;;;;;;;12.18;9.35;;;;;;;1.94;78.92;101637.34;5086570;28;20052;-83
2021/04/15 05:18:23;;;;;;;13.50;10.55;;;;;;;2.00;78.38;101633.91;5079897;28;20063;-83
2021/04/15 05:20:55;;;;;;;16.35;10.60;;;;;;;2.03;78.52;101637.44;5082493;28;20052;-83
2021/04/15 05:23:43;;;;;;;14.95;10.25;;;;;;;2.09;77.82;101631.34;5083675;28;20063;-84
2021/04/15 05:26:18;;;;;;;14.00;9.68;;;;;;;2.17;78.00;101647.13;5087917;28;20037;-83
2021/04/15 05:28:47;;;;;;;15.25;10.00;;;;;;;2.22;77.96;101648.88;5083992;28;20057;-83
2021/04/15 05:31:17;;;;;;;11.57;9.73;;;;;;;2.26;77.90;101644.53;5090261;28;20048;-83
2021/04/15 05:33:46;;;;;;;11.88;10.10;;;;;;;2.29;77.66;101640.22;5084680;28;20056;-83
2021/04/15 05:36:35;;;;;;;15.32;10.57;;;;;;;2.41;77.46;101655.09;5084539;28;20071;-82
2021/04/15 05:39:07;;;;;;;12.75;10.55;;;;;;;2.46;77.05;101653.41;5085264;28;20063;-83
2021/04/15 05:42:02;;;;;;;13.48;10.25;;;;;;;2.54;77.55;101661.28;5076371;28;20045;-82
2021/04/15 05:44:37;;;;;;;15.32;10.82;;;;;;;2.57;76.77;101645.63;5083674;28;20044;-83
2021/04/15 05:47:10;;;;;;;14.27;10.75;;;;;;;2.64;76.69;101652.63;5075720;28;20052;-83
2021/04/15 05:49:41;;;;;;;16.20;10.52;;;;;;;2.72;75.94;101646.56;5083136;28;20045;-82
2021/04/15 05:52:25;;;;;;;13.98;10.18;;;;;;;2.80;75.67;101644.88;5078671;28;20045;-82
2021/04/15 05:54:56;;;;;;;13.38;10.20;;;;;;;2.85;75.60;101646.63;5088324;28;20032;-82
2021/04/15 05:57:28;;;;;;;18.23;10.70;;;;;;;2.86;75.33;101640.53;5084990;28;20053;-83
2021/04/15 06:00:15;;;;;;;13.65;10.38;;;;;;;2.93;75.37;101647.53;5092381;28;20067;-82
2021/04/15 06:02:52;;;;;;;17.02;10.70;;;;;;;2.97;74.96;101649.31;5083626;28;20052;-83
2021/04/15 06:05:27;;;;;;;13.27;10.43;;;;;;;3.05;74.65;101648.47;5086128;28;20032;-83
2021/04/15 06:07:57;;;;;;;14.82;10.90;;;;;;;3.13;74.87;101646.75;5078280;28;20061;-83
2021/04/15 06:10:28;;;;;;;;;;;;;;;3.24;74.17;101652.03;5085208;28;20064;-83
2021/04/15 06:13:07;;;;;;;14.05;10.00;;;;;;;3.31;74.13;101648.53;5085848;28;19988;-82
2021/04/15 06:15:54;;;;;;;14.95;10.20;;;;;;;3.40;73.47;101650.31;5083355;28;20064;-84
2021/04/15 06:18:34;;;;;;;14.60;10.55;;;;;;;3.46;73.83;101655.56;5085634;28;20028;-81
2021/04/15 06:21:07;;;;;;;14.40;10.60;;;;;;;3.57;72.89;101653.84;5088817;28;20076;-81
2021/04/15 06:23:43;;;;;;;15.27;10.23;;;;;;;3.73;76.28;101658.22;5090500;28;20035;-82
2021/04/15 06:26:18;;;;;;;13.60;10.07;;;;;;;4.00;74.69;101659.13;5088875;28;20059;-82
2021/04/15 06:28:48;;;;;;;15.35;9.98;;;;;;;4.05;70.71;101654.75;5093980;28;20049;-80
2021/04/15 06:31:34;;;;;;;12.77;9.98;;;;;;;4.06;70.82;101653.88;5087978;28;20048;-83
2021/04/15 06:34:06;;;;;;;15.43;10.48;;;;;;;4.04;70.80;101663.50;5096798;28;20105;-79
2021/04/15 06:36:49;;;;;;;14.02;10.82;;;;;;;4.10;70.72;101652.97;5091131;28;20067;-83
2021/04/15 06:39:27;;;;;;;12.73;10.40;;;;;;;4.43;70.19;101655.56;5098875;28;20045;-83
2021/04/15 06:42:31;;;;;;;14.10;10.52;;;;;;;6.19;64.84;101655.53;5096437;28;20052;-83
2021/04/15 06:45:05;;;;;;;11.75;9.40;;;;;;;8.30;57.96;101643.94;5081276;28;20044;-84
2021/04/15 06:47:45;;;;;;;11.07;9.20;;;;;;;9.81;51.39;101660.19;5096392;28;20055;-83
2021/04/15 06:50:21;;;;;;;10.93;8.90;;;;;;;10.32;50.30;101657.22;5095542;28;20117;-83
2021/04/15 06:53:18;;;;;;;12.45;8.85;;;;;;;10.76;47.82;101645.41;5095988;28;20172;-83
2021/04/15 06:55:56;;;;;;;12.20;8.10;;;;;;;11.54;47.17;101657.25;5088457;28;20045;-83
2021/04/15 06:58:46;;;;;;;11.00;8.65;;;;;;;11.83;44.94;101651.91;5086586;28;20048;-84
2021/04/15 07:01:17;;;;;;;9.95;8.90;;;;;;;12.51;43.84;101650.53;5079916;28;20154;-84
2021/04/15 07:03:58;;;;;;;9.57;8.57;;;;;;;12.93;41.67;101653.44;5074614;28;20099;-83
2021/04/15 07:06:46;;;;;;;9.05;8.00;;;;;;;13.44;40.79;101650.63;5083547;28;20550;-83
2021/04/15 07:09:50;;;;;;;11.13;8.25;;;;;;;13.57;39.75;101653.69;5078532;28;20045;-83
2021/04/15 07:12:45;;;;;;;8.70;7.70;;;;;;;13.28;40.83;101650.34;5094642;28;20020;-83
2021/04/15 07:15:30;;;;;;;11.60;8.02;;;;;;;13.12;40.82;101646.50;5023078;28;20034;-83
2021/04/15 07:18:09;;;;;;;8.65;7.78;;;;;;;13.27;40.22;101643.31;5095105;28;20040;-83
2021/04/15 07:21:03;;;;;;;9.13;7.40;;;;;;;13.50;39.52;101653.06;5090339;28;20045;-83
2021/04/15 07:24:07;;;;;;;10.20;7.90;;;;;;;13.89;39.15;101652.38;5093063;28;20040;-83
2021/04/15 07:26:44;;;;;;;10.15;8.10;;;;;;;14.28;37.48;101645.41;5078113;28;20072;-83
2021/04/15 07:29:26;;;;;;;10.43;8.55;;;;;;;14.08;38.14;101648.03;5082836;28;20059;-83
2021/04/15 07:32:31;;;;;;;10.95;8.02;;;;;;;14.15;38.20;101654.88;5089152;28;20088;-84
2021/04/15 07:35:29;;;;;;;9.98;8.35;;;;;;;14.56;37.43;101646.94;5083144;28;20044;-83
2021/04/15 07:38:14;;;;;;;10.70;8.35;;;;;;;15.37;36.24;101646.78;5074324;28;20124;-83
2021/04/15 07:40:58;;;;;;;10.18;7.80;;;;;;;15.71;35.84;101648.75;5082498;28;20055;-83
2021/04/15 07:43:53;;;;;;;8.75;7.85;;;;;;;15.37;35.72;101654.78;5079541;28;20550;-83
2021/04/15 07:46:47;;;;;;;9.68;7.45;;;;;;;15.44;36.28;101649.06;5082663;28;20169;-83
2021/04/15 07:49:55;;;;;;;9.73;8.40;;;;;;;15.81;35.30;101657.16;5086810;28;20147;-84
2021/04/15 07:52:41;;;;;;;8.73;7.68;;;;;;;15.63;36.66;101657.13;5077854;28;20076;-85
2021/04/15 07:55:22;;;;;;;8.55;7.65;;;;;;;15.98;34.61;101654.53;5086324;28;20095;-84
2021/04/15 07:58:26;;;;;;;9.25;7.43;;;;;;;15.75;34.67;101658.31;5087670;28;20078;-83
2021/04/15 08:01:26;;;;;;;7.95;7.10;;;;;;;14.52;36.35;101653.31;5080112;28;20112;-84
2021/04/15 08:04:04;;;;;;;9.07;8.02;;;;;;;13.59;38.37;101668.66;5087869;28;20060;-84
2021/04/15 08:06:48;;;;;;;10.82;8.15;;;;;;;12.94;39.47;101664.00;5089796;28;20201;-83
2021/04/15 08:09:39;;;;;;;25.20;8.48;;;;;;;12.95;40.19;101660.44;5087945;28;20033;-83
2021/04/15 08:12:24;;;;;;;8.85;7.95;;;;;;;13.09;39.67;101659.06;5094140;28;20090;-83
2021/04/15 08:15:19;;;;;;;9.48;8.27;;;;;;;12.45;41.01;101658.69;5082557;28;20136;-83
2021/04/15 08:18:02;;;;;;;10.07;8.30;;;;;;;12.09;42.26;101666.16;5067195;28;20056;-81
2021/04/15 08:20:58;;;;;;;8.85;7.95;;;;;;;12.77;41.99;101657.56;5077919;28;20116;-79
2021/04/15 08:23:52;;;;;;;9.07;8.07;;;;;;;13.70;39.78;101660.25;5072309;28;20530;-80
2021/04/15 08:26:39;;;;;;;8.98;7.95;;;;;;;13.58;38.93;101661.59;5081867;28;20075;-81
2021/04/15 08:29:27;;;;;;;10.13;8.85;;;;;;;13.14;39.76;101665.94;5087326;28;20087;-82
2021/04/15 08:32:03;;;;;;;12.07;8.57;;;;;;;11.85;42.38;101659.84;5081699;28;20057;-82
2021/04/15 08:34:46;;;;;;;11.75;8.25;;;;;;;10.86;44.84;101665.47;5083202;28;20049;-83
2021/04/15 08:38:02;;;;;;;9.55;8.48;;;;;;;9.93;47.08;101659.91;5093425;28;20060;-83
2021/04/15 08:40:54;;;;;;;13.00;9.25;;;;;;;9.22;50.07;101665.06;5083759;28;20058;-83
2021/04/15 08:43:51;;;;;;;15.00;10.32;;;;;;;9.13;51.60;101658.19;5080739;28;20052;-85
2021/04/15 08:46:49;;;;;;;12.98;9.85;;;;;;;9.25;50.98;101662.34;5073252;28;20044;-85
2021/04/15 08:49:44;;;;;;;11.77;9.15;;;;;;;9.10;51.10;101657.41;5070158;28;20673;-83
2021/04/15 08:52:57;;;;;;;12.95;9.45;;;;;;;8.79;51.77;101665.94;5083428;28;20399;-85
2021/04/15 08:55:44;;;;;;;13.40;9.55;;;;;;;8.23;52.72;101648.44;5055933;28;20040;-85
2021/04/15 08:58:41;;;;;;;13.98;9.88;;;;;;;8.10;53.69;101657.47;5078590;28;20045;-84
2021/04/15 09:01:48;;;;;;;12.18;9.95;;;;;;;7.98;54.81;101663.84;5088464;28;20028;-85
2021/04/15 09:04:51;;;;;;;13.57;10.20;;;;;;;8.23;54.81;101663.41;5079774;28;20377;-84
2021/04/15 09:07:32;;;;;;;13.65;10.52;;;;;;;8.16;54.68;101660.03;5074709;28;20041;-84
2021/04/15 09:10:32;;;;;;;13.07;10.10;;;;;;;8.06;54.79;101666.31;5070723;28;20052;-84
2021/04/15 09:13:12;;;;;;;14.40;10.38;;;;;;;7.92;54.08;101668.31;5066609;28;20095;-84
2021/04/15 09:15:58;;;;;;;14.25;10.50;;;;;;;7.57;55.45;101663.56;5088897;28;20052;-84
2021/04/15 09:18:27;;;;;;;14.38;10.32;;;;;;;7.66;55.21;101666.97;5078954;28;20056;-84
2021/04/15 09:21:24;;;;;;;13.87;10.40;;;;;;;7.72;55.63;101669.50;5069792;28;20048;-84
2021/04/15 09:24:34;;;;;;;12.88;9.52;;;;;;;7.96;53.79;101664.75;5072930;28;20486;-84
2021/04/15 09:27:09;;;;;;;14.60;10.00;;;;;;;8.06;53.60;101653.13;5068860;28;20419;-84
2021/04/15 09:29:43;;;;;;;12.70;8.90;;;;;;;7.93;52.87;101664.78;5070959;28;20071;-84
2021/04/15 09:32:36;;;;;;;12.63;9.35;;;;;;;7.82;53.40;101662.34;5073866;28;20068;-82
2021/04/15 09:35:48;;;;;;;14.30;9.85;;;;;;;7.91;54.36;101662.16;5081717;28;20051;-85
2021/04/15 09:38:50;;;;;;;12.38;8.15;;;;;;;8.23;51.92;101664.28;5074414;28;20055;-83
2021/04/15 09:41:44;;;;;;;11.43;8.35;;;;;;;8.30;51.28;101655.38;5071068;28;20059;-83
2021/04/15 09:44:34;;;;;;;11.38;7.93;;;;;;;8.41;48.71;101648.16;5071820;28;20123;-83
2021/04/15 09:47:33;;;;;;;10.70;8.38;;;;;;;8.29;48.51;101652.75;5076592;28;20052;-83
2021/04/15 09:50:44;;;;;;;12.35;8.98;;;;;;;8.09;49.74;101643.41;5082485;28;20083;-84
2021/04/15 09:53:25;;;;;;;16.35;7.75;;;;;;;8.23;49.46;101642.28;5052863;28;20049;-84
2021/04/15 09:56:20;;;;;;;9.25;6.80;;;;;;;8.63;46.29;101645.13;5085163;28;20056;-83
2021/04/15 09:59:21;;;;;;;11.60;7.97;;;;;;;8.65;46.91;101643.34;5080525;28;20045;-85
2021/04/15 10:02:16;;;;;;;10.10;7.22;;;;;;;8.62;46.52;101638.97;5077132;28;20112;-85
2021/04/15 10:04:52;;;;;;;10.27;7.38;;;;;;;8.83;45.48;101647.38;5074124;28;20808;-83
2021/04/15 10:07:27;;;;;;;9.27;6.07;;;;;;;9.05;45.05;101640.75;5080839;28;20067;-84
2021/04/15 10:10:12;;;;;;;7.47;6.03;;;;;;;9.17;43.26;101636.97;5083415;28;20056;-84
2021/04/15 10:13:06;;;;;;;7.15;5.82;;;;;;;9.27;43.52;101628.84;5083324;28;20109;-84
2021/04/15 10:16:06;;;;;;;9.35;5.78;;;;;;;9.23;41.97;101624.50;5085589;28;20070;-85
2021/04/15 10:19:01;;;;;;;11.23;5.83;;;;;;;9.19;42.63;101630.75;5087144;28;20120;-84
2021/04/15 10:21:42;;;;;;;6.97;5.07;;;;;;;9.23;42.22;101624.50;5089829;28;20108;-83
2021/04/15 10:24:31;;;;;;;6.53;5.45;;;;;;;9.38;42.37;101629.47;5091064;28;20071;-84
2021/04/15 10:27:34;;;;;;;10.02;5.68;;;;;;;9.52;40.64;101628.28;5087490;28;20078;-86
2021/04/15 10:30:22;;;;;;;7.28;5.00;;;;;;;9.46;40.94;101624.84;5081070;28;20025;-82
2021/04/15 10:32:52;;;;;;;7.85;5.22;;;;;;;9.34;41.19;101608.41;5083639;28;20050;-84
2021/04/15 10:35:39;;;;;;;7.07;5.18;;;;;;;9.23;41.75;101623.63;5081843;28;20040;-85
2021/04/15 10:38:58;;;;;;;9.07;5.57;;;;;;;9.17;41.85;101618.47;5077611;28;20054;-85
2021/04/15 10:42:17;;;;;;;8.30;5.82;;;;;;;9.20;41.51;101619.28;5079280;28;20041;-85
2021/04/15 10:45:31;;;;;;;9.32;4.97;;;;;;;9.17;41.59;101614.06;5018372;28;20042;-84
2021/04/15 10:48:22;;;;;;;8.27;5.10;;;;;;;9.17;41.33;101607.91;5057023;28;20132;-85
2021/04/15 10:51:16;;;;;;;7.00;4.88;;;;;;;9.57;40.00;101611.41;5084611;28;20048;-84
2021/04/15 10:53:47;;;;;;;6.90;4.43;;;;;;;9.74;40.16;101618.94;5074752;28;20032;-84
2021/04/15 10:56:34;;;;;;;8.15;5.45;;;;;;;9.50;40.18;101613.31;5075034;28;20037;-84
2021/04/15 10:59:01;;;;;;;9.73;5.78;;;;;;;9.46;40.99;101611.63;5080117;28;20048;-84
2021/04/15 11:01:37;;;;;;;7.78;5.15;;;;;;;9.80;42.08;101611.72;5081525;28;20143;-84
2021/04/15 11:04:12;;;;;;;7.13;4.82;;;;;;;9.92;42.17;101605.22;5083093;28;20068;-84
2021/04/15 11:06:44;;;;;;;7.57;5.40;;;;;;;10.07;41.59;101604.00;5080082;28;20132;-84
2021/04/15 11:09:22;;;;;;;6.97;4.82;;;;;;;10.11;40.46;101603.00;5079773;28;20044;-84
2021/04/15 11:11:54;;;;;;;7.78;5.30;;;;;;;10.15;41.05;101592.31;5083618;28;20044;-84
2021/04/15 11:14:23;;;;;;;7.90;6.03;;;;;;;10.19;39.58;101594.00;5096807;28;20139;-85
2021/04/15 11:16:56;;;;;;;7.93;5.32;;;;;;;9.69;39.61;101599.66;5084018;28;20048;-84
2021/04/15 11:19:31;;;;;;;11.88;5.43;;;;;;;9.35;41.31;101597.78;5080627;28;20051;-86
2021/04/15 11:22:15;;;;;;;7.20;5.13;;;;;;;8.97;43.40;101605.72;5088529;28;20100;-83
2021/04/15 11:24:43;;;;;;;9.13;6.00;;;;;;;8.61;44.39;101600.28;5081851;28;20049;-83
2021/04/15 11:27:13;;;;;;;7.75;5.20;;;;;;;8.48;44.46;101600.53;5055438;28;20147;-84
2021/04/15 11:29:48;;;;;;;9.55;4.68;;;;;;;8.40;43.04;101608.59;5073648;28;20072;-84
2021/04/15 11:32:24;;;;;;;6.25;3.83;;;;;;;8.53;42.63;101604.81;5080056;28;20079;-85
2021/04/15 11:35:11;;;;;;;6.88;4.00;;;;;;;8.44;42.87;101602.38;5073598;28;20054;-85
2021/04/15 11:37:42;;;;;;;6.88;4.20;;;;;;;8.38;42.91;101579.59;5068715;28;20065;-85
2021/04/15 11:40:23;;;;;;;6.15;4.00;;;;;;;8.55;42.44;101592.47;5078218;28;20045;-86
2021/04/15 11:42:52;;;;;;;8.10;4.00;;;;;;;8.69;42.82;101594.81;5087746;28;20072;-85
2021/04/15 11:45:31;;;;;;;7.75;4.68;;;;;;;8.75;43.19;101585.03;5076958;28;20071;-85
2021/04/15 11:48:10;;;;;;;10.18;5.05;;;;;;;8.81;44.11;101585.81;5077590;28;20049;-88
2021/04/15 11:50:40;;;;;;;7.78;5.07;;;;;;;8.87;44.21;101577.72;5083517;28;20049;-85
2021/04/15 11:53:47;;;;;;;7.55;5.22;;;;;;;9.10;44.45;101580.75;5097744;28;20159;-85
2021/04/15 11:56:23;;;;;;;9.48;6.00;;;;;;;9.23;44.02;101581.34;5082278;28;20102;-86
2021/04/15 11:58:52;;;;;;;7.72;5.53;;;;;;;9.26;43.84;101579.53;5086303;28;20032;-84
2021/04/15 12:01:32;;;;;;;7.97;5.50;;;;;;;9.21;43.15;101577.88;5072370;28;20242;-85
2021/04/15 12:04:07;;;;;;;7.07;5.10;;;;;;;9.43;42.64;101573.84;5079822;28;20045;-84
2021/04/15 12:06:47;;;;;;;8.70;4.60;;;;;;;9.87;41.15;101575.41;5087022;28;20045;-83
2021/04/15 12:09:17;;;;;;;7.47;4.55;;;;;;;10.43;40.15;101565.97;5094349;28;20052;-84
2021/04/15 12:11:56;;;;;;;8.63;4.70;;;;;;;11.11;38.22;101562.25;5084451;28;20045;-83
2021/04/15 12:14:25;;;;;;;9.60;5.47;;;;;;;11.78;37.22;101570.72;5070701;28;20041;-83
2021/04/15 12:17:00;;;;;;;6.20;4.53;;;;;;;11.78;35.86;101562.78;5066673;28;20045;-84
2021/04/15 12:19:48;;;;;;;5.70;4.80;;;;;;;11.12;38.04;101564.84;5079438;28;20118;-84
2021/04/15 12:22:24;;;;;;;7.43;4.78;;;;;;;10.71;40.61;101560.75;5070018;28;20068;-84
2021/04/15 12:25:14;;;;;;;7.72;4.88;;;;;;;10.15;40.83;101568.47;5067114;28;20083;-85
2021/04/15 12:27:48;;;;;;;7.72;5.18;;;;;;;9.95;42.72;101562.81;5073543;28;20527;-86
2021/04/15 12:30:27;;;;;;;7.35;4.50;;;;;;;9.98;41.85;101553.94;5071189;28;20483;-84
2021/04/15 12:33:05;;;;;;;7.30;4.22;;;;;;;10.07;41.35;101562.50;5074992;28;20041;-86